Young Endeavour — VMGW — position and weather

sailwx.info

Track history (hours):
 
Tides and Currents Weather Stations Pressure Air Temp Water Temp Dewpoint Dewpoint Depression Visibility Wind Speed Wind Dir Waves Ship Positions

Young Endeavour (Australia)

Ship's website: http://www.youngendeavour.gov.au/

Last reported at 2020-Aug-19 03:00 UTC. Time now 2020-Sep-20 01:01 UTC.
Position S 33°49' E 151°26'.
Warning: this ship's position is 31 days out of date.

Length 44 m; beam 7.8 m; draft 4 m.

Type: Other ship. MMSI: 503000136.

Date/timePositionNaut miles runAvg speedWind from/ knotsBaromVisibWave heightAir tempDewpointWater temp
2020-Aug-19 03:00S 33°49' E 151°26'1 1.3
2020-Aug-19 02:00S 33°48' E 151°25'3 6.3
2020-Aug-19 01:30S 33°48' E 151°22'5 0.8
2020-Aug-18 19:10S 33°49' E 151°15'0 0.0
2020-Aug-18 16:52S 33°49' E 151°15'0 0.0
2020-Aug-18 15:49S 33°49' E 151°15'0 0.0
2020-Aug-18 10:58S 33°49' E 151°15'  
2020-Aug-10 17:38S 11°32' E 131°39'43 8.5
2020-Aug-10 12:30S 12°05' E 131°10'27 7.8
2020-Aug-10 09:00S 12°18' E 130°46'3 6.7
2020-Aug-10 08:30S 12°21' E 130°45'10 1.2
2020-Aug-10 00:28S 12°29' E 130°52'0 0.1
2020-Aug-09 23:27S 12°29' E 130°52'0 0.0
2020-Aug-09 19:57S 12°29' E 130°52'0 0.0
2020-Aug-09 18:27S 12°29' E 130°52'0 0.0
2020-Aug-09 16:30S 12°29' E 130°52'0 0.0
2020-Aug-09 15:00S 12°29' E 130°52'0 0.0
2020-Aug-09 12:28S 12°29' E 130°52'0 0.0
2020-Aug-09 11:00S 12°29' E 130°52'0 0.0
2020-Aug-09 09:30S 12°29' E 130°52'0 0.0
2020-Aug-09 07:30S 12°29' E 130°52'0 0.0
2020-Aug-09 07:00S 12°29' E 130°52'0 0.0
2020-Aug-09 05:30S 12°29' E 130°52'0 0.0
2020-Aug-09 04:30S 12°29' E 130°52'  
Track history (hours):
 
Tides and Currents Weather Stations Pressure Air Temp Water Temp Dewpoint Dewpoint Depression Visibility Wind Speed Wind Dir Waves Ship Positions

Young Endeavour (Australia)

Ship's website: http://www.youngendeavour.gov.au/

Last reported at 2020-Aug-19 03:00 UTC. Time now 2020-Sep-20 01:01 UTC.
Position S 33°49' E 151°26'.
Warning: this ship's position is 31 days out of date.

Length 44 m; beam 7.8 m; draft 4 m.

Type: Other ship. MMSI: 503000136.

Date/timePositionNaut miles runAvg speedWind from/ knotsBaromVisibWave heightAir tempDewpointWater temp
2020-Aug-19 03:00S 33°49' E 151°26'1 1.3
2020-Aug-19 02:00S 33°48' E 151°25'3 6.3
2020-Aug-19 01:30S 33°48' E 151°22'5 0.8
2020-Aug-18 19:10S 33°49' E 151°15'0 0.0
2020-Aug-18 16:52S 33°49' E 151°15'0 0.0
2020-Aug-18 15:49S 33°49' E 151°15'0 0.0
2020-Aug-18 10:58S 33°49' E 151°15'  
2020-Aug-10 17:38S 11°32' E 131°39'43 8.5
2020-Aug-10 12:30S 12°05' E 131°10'27 7.8
2020-Aug-10 09:00S 12°18' E 130°46'3 6.7
2020-Aug-10 08:30S 12°21' E 130°45'10 1.2
2020-Aug-10 00:28S 12°29' E 130°52'0 0.1
2020-Aug-09 23:27S 12°29' E 130°52'0 0.0
2020-Aug-09 19:57S 12°29' E 130°52'0 0.0
2020-Aug-09 18:27S 12°29' E 130°52'0 0.0
2020-Aug-09 16:30S 12°29' E 130°52'0 0.0
2020-Aug-09 15:00S 12°29' E 130°52'0 0.0
2020-Aug-09 12:28S 12°29' E 130°52'0 0.0
2020-Aug-09 11:00S 12°29' E 130°52'0 0.0
2020-Aug-09 09:30S 12°29' E 130°52'0 0.0
2020-Aug-09 07:30S 12°29' E 130°52'0 0.0
2020-Aug-09 07:00S 12°29' E 130°52'0 0.0
2020-Aug-09 05:30S 12°29' E 130°52'0 0.0
2020-Aug-09 04:30S 12°29' E 130°52'  

Dump ship's entire track history